sensor_id;sensor_type;location;lat;lon;timestamp;temperature;humidity
49132;DHT22;35149;51.196;6.204;2023-01-10T00:00:02;9.40;71.90
49132;DHT22;35149;51.196;6.204;2023-01-10T00:02:30;9.40;71.80
49132;DHT22;35149;51.196;6.204;2023-01-10T00:04:57;9.40;71.70
49132;DHT22;35149;51.196;6.204;2023-01-10T00:07:26;9.50;71.70
49132;DHT22;35149;51.196;6.204;2023-01-10T00:09:58;9.50;71.50
49132;DHT22;35149;51.196;6.204;2023-01-10T00:12:24;9.50;71.40
49132;DHT22;35149;51.196;6.204;2023-01-10T00:15:10;9.50;71.30
49132;DHT22;35149;51.196;6.204;2023-01-10T00:17:36;9.50;71.10
49132;DHT22;35149;51.196;6.204;2023-01-10T00:20:06;9.50;71.10
49132;DHT22;35149;51.196;6.204;2023-01-10T00:22:35;9.50;71.00
49132;DHT22;35149;51.196;6.204;2023-01-10T00:25:04;9.60;71.00
49132;DHT22;35149;51.196;6.204;2023-01-10T00:27:34;9.60;70.90
49132;DHT22;35149;51.196;6.204;2023-01-10T00:30:06;9.60;70.80
49132;DHT22;35149;51.196;6.204;2023-01-10T00:32:40;9.60;70.50
49132;DHT22;35149;51.196;6.204;2023-01-10T00:35:07;9.60;70.50
49132;DHT22;35149;51.196;6.204;2023-01-10T00:37:34;9.60;70.50
49132;DHT22;35149;51.196;6.204;2023-01-10T00:40:01;9.50;70.40
49132;DHT22;35149;51.196;6.204;2023-01-10T00:42:28;9.50;70.40
49132;DHT22;35149;51.196;6.204;2023-01-10T00:45:15;9.50;70.40
49132;DHT22;35149;51.196;6.204;2023-01-10T00:47:42;9.50;70.30
49132;DHT22;35149;51.196;6.204;2023-01-10T00:50:09;9.50;70.30
49132;DHT22;35149;51.196;6.204;2023-01-10T00:52:41;9.50;70.10
49132;DHT22;35149;51.196;6.204;2023-01-10T00:55:19;9.50;70.00
49132;DHT22;35149;51.196;6.204;2023-01-10T00:57:48;9.40;69.90
49132;DHT22;35149;51.196;6.204;2023-01-10T01:00:15;9.30;69.80
49132;DHT22;35149;51.196;6.204;2023-01-10T01:02:42;9.30;69.80
49132;DHT22;35149;51.196;6.204;2023-01-10T01:05:15;9.30;69.80
49132;DHT22;35149;51.196;6.204;2023-01-10T01:07:42;9.20;69.80
49132;DHT22;35149;51.196;6.204;2023-01-10T01:10:09;9.20;69.80
49132;DHT22;35149;51.196;6.204;2023-01-10T01:12:57;9.20;69.90
49132;DHT22;35149;51.196;6.204;2023-01-10T01:15:28;9.10;69.80
49132;DHT22;35149;51.196;6.204;2023-01-10T01:17:55;9.10;69.90
49132;DHT22;35149;51.196;6.204;2023-01-10T01:20:21;9.00;69.90
49132;DHT22;35149;51.196;6.204;2023-01-10T01:22:52;9.00;69.90
49132;DHT22;35149;51.196;6.204;2023-01-10T01:25:22;8.90;69.90
49132;DHT22;35149;51.196;6.204;2023-01-10T01:27:48;8.90;69.90
49132;DHT22;35149;51.196;6.204;2023-01-10T01:30:22;8.90;69.90
49132;DHT22;35149;51.196;6.204;2023-01-10T01:32:49;8.80;69.90
49132;DHT22;35149;51.196;6.204;2023-01-10T01:35:16;8.80;70.00
49132;DHT22;35149;51.196;6.204;2023-01-10T01:37:43;8.80;70.10
49132;DHT22;35149;51.196;6.204;2023-01-10T01:40:13;8.70;70.10
49132;DHT22;35149;51.196;6.204;2023-01-10T01:42:40;8.70;70.20
49132;DHT22;35149;51.196;6.204;2023-01-10T01:47:48;8.70;70.30
49132;DHT22;35149;51.196;6.204;2023-01-10T01:50:29;8.60;70.30
49132;DHT22;35149;51.196;6.204;2023-01-10T01:53:26;8.60;70.40
49132;DHT22;35149;51.196;6.204;2023-01-10T01:55:56;8.60;70.40
49132;DHT22;35149;51.196;6.204;2023-01-10T01:58:41;8.60;70.40
49132;DHT22;35149;51.196;6.204;2023-01-10T02:01:09;8.50;70.60
49132;DHT22;35149;51.196;6.204;2023-01-10T02:03:37;8.50;70.50
49132;DHT22;35149;51.196;6.204;2023-01-10T02:06:08;8.50;70.40
49132;DHT22;35149;51.196;6.204;2023-01-10T02:08:35;8.50;70.50
49132;DHT22;35149;51.196;6.204;2023-01-10T02:11:08;8.50;70.60
49132;DHT22;35149;51.196;6.204;2023-01-10T02:13:40;8.50;70.80
49132;DHT22;35149;51.196;6.204;2023-01-10T02:16:10;8.50;70.80
49132;DHT22;35149;51.196;6.204;2023-01-10T02:18:42;8.50;70.80
49132;DHT22;35149;51.196;6.204;2023-01-10T02:21:29;8.50;70.70
49132;DHT22;35149;51.196;6.204;2023-01-10T02:27:11;8.50;70.70
49132;DHT22;35149;51.196;6.204;2023-01-10T02:35:42;8.50;70.50
49132;DHT22;35149;51.196;6.204;2023-01-10T02:38:48;8.50;70.40
49132;DHT22;35149;51.196;6.204;2023-01-10T02:41:36;8.50;70.40
49132;DHT22;35149;51.196;6.204;2023-01-10T02:44:16;8.50;70.30
49132;DHT22;35149;51.196;6.204;2023-01-10T02:46:45;8.40;70.30
49132;DHT22;35149;51.196;6.204;2023-01-10T02:49:14;8.40;70.20
49132;DHT22;35149;51.196;6.204;2023-01-10T02:51:41;8.30;70.20
49132;DHT22;35149;51.196;6.204;2023-01-10T02:54:12;8.30;70.30
49132;DHT22;35149;51.196;6.204;2023-01-10T03:02:02;8.20;70.20
49132;DHT22;35149;51.196;6.204;2023-01-10T03:09:59;8.30;70.50
49132;DHT22;35149;51.196;6.204;2023-01-10T03:12:35;8.30;70.60
49132;DHT22;35149;51.196;6.204;2023-01-10T03:15:15;8.20;70.50
49132;DHT22;35149;51.196;6.204;2023-01-10T03:17:48;8.30;70.60
49132;DHT22;35149;51.196;6.204;2023-01-10T03:20:19;8.20;70.40
49132;DHT22;35149;51.196;6.204;2023-01-10T03:22:51;8.20;70.40
49132;DHT22;35149;51.196;6.204;2023-01-10T03:25:24;8.20;70.40
49132;DHT22;35149;51.196;6.204;2023-01-10T03:28:06;8.20;70.50
49132;DHT22;35149;51.196;6.204;2023-01-10T03:33:18;8.30;70.90
49132;DHT22;35149;51.196;6.204;2023-01-10T03:39:10;8.30;70.90
49132;DHT22;35149;51.196;6.204;2023-01-10T03:41:46;8.40;70.90
49132;DHT22;35149;51.196;6.204;2023-01-10T03:45:03;8.40;70.70
49132;DHT22;35149;51.196;6.204;2023-01-10T03:50:21;8.50;70.60
49132;DHT22;35149;51.196;6.204;2023-01-10T03:52:51;8.50;70.60
49132;DHT22;35149;51.196;6.204;2023-01-10T03:55:21;8.60;70.60
49132;DHT22;35149;51.196;6.204;2023-01-10T03:57:48;8.60;70.60
49132;DHT22;35149;51.196;6.204;2023-01-10T04:00:16;8.60;70.50
49132;DHT22;35149;51.196;6.204;2023-01-10T04:02:43;8.60;70.40
49132;DHT22;35149;51.196;6.204;2023-01-10T04:05:12;8.70;70.40
49132;DHT22;35149;51.196;6.204;2023-01-10T04:07:38;8.70;70.40
49132;DHT22;35149;51.196;6.204;2023-01-10T04:10:08;8.70;70.30
49132;DHT22;35149;51.196;6.204;2023-01-10T04:12:35;8.70;70.20
49132;DHT22;35149;51.196;6.204;2023-01-10T04:15:04;8.70;70.10
49132;DHT22;35149;51.196;6.204;2023-01-10T04:17:33;8.70;70.00
49132;DHT22;35149;51.196;6.204;2023-01-10T04:20:02;8.80;69.90
49132;DHT22;35149;51.196;6.204;2023-01-10T04:22:40;8.80;69.80
49132;DHT22;35149;51.196;6.204;2023-01-10T04:25:11;8.70;69.60
49132;DHT22;35149;51.196;6.204;2023-01-10T04:27:37;8.70;69.50
49132;DHT22;35149;51.196;6.204;2023-01-10T04:30:05;8.70;69.40
49132;DHT22;35149;51.196;6.204;2023-01-10T04:32:31;8.60;69.40
49132;DHT22;35149;51.196;6.204;2023-01-10T04:35:00;8.60;69.40
49132;DHT22;35149;51.196;6.204;2023-01-10T04:37:27;8.60;69.60
49132;DHT22;35149;51.196;6.204;2023-01-10T04:39:56;8.50;69.40
49132;DHT22;35149;51.196;6.204;2023-01-10T04:42:23;8.50;69.50
49132;DHT22;35149;51.196;6.204;2023-01-10T04:44:51;8.50;69.50
49132;DHT22;35149;51.196;6.204;2023-01-10T04:47:23;8.40;69.50
49132;DHT22;35149;51.196;6.204;2023-01-10T04:49:50;8.40;69.60
49132;DHT22;35149;51.196;6.204;2023-01-10T04:52:16;8.40;69.60
49132;DHT22;35149;51.196;6.204;2023-01-10T04:54:43;8.30;69.60
49132;DHT22;35149;51.196;6.204;2023-01-10T04:57:12;8.30;69.60
49132;DHT22;35149;51.196;6.204;2023-01-10T04:59:38;8.30;69.70
49132;DHT22;35149;51.196;6.204;2023-01-10T05:02:08;8.30;69.80
49132;DHT22;35149;51.196;6.204;2023-01-10T05:04:36;8.20;69.80
49132;DHT22;35149;51.196;6.204;2023-01-10T05:07:03;8.20;69.80
49132;DHT22;35149;51.196;6.204;2023-01-10T05:09:30;8.20;69.90
49132;DHT22;35149;51.196;6.204;2023-01-10T05:11:57;8.20;69.90
49132;DHT22;35149;51.196;6.204;2023-01-10T05:14:26;8.20;70.00
49132;DHT22;35149;51.196;6.204;2023-01-10T05:16:52;8.10;70.00
49132;DHT22;35149;51.196;6.204;2023-01-10T05:19:25;8.10;70.00
49132;DHT22;35149;51.196;6.204;2023-01-10T05:21:54;8.10;70.10
49132;DHT22;35149;51.196;6.204;2023-01-10T05:24:21;8.10;70.20
49132;DHT22;35149;51.196;6.204;2023-01-10T05:26:48;8.10;70.20
49132;DHT22;35149;51.196;6.204;2023-01-10T05:29:15;8.00;70.30
49132;DHT22;35149;51.196;6.204;2023-01-10T05:31:44;8.00;70.40
49132;DHT22;35149;51.196;6.204;2023-01-10T05:34:11;8.00;70.40
49132;DHT22;35149;51.196;6.204;2023-01-10T05:36:38;8.00;70.40
49132;DHT22;35149;51.196;6.204;2023-01-10T05:39:05;8.00;70.30
49132;DHT22;35149;51.196;6.204;2023-01-10T05:41:32;8.00;70.40
49132;DHT22;35149;51.196;6.204;2023-01-10T05:44:02;8.00;70.40
49132;DHT22;35149;51.196;6.204;2023-01-10T05:46:31;8.00;70.40
49132;DHT22;35149;51.196;6.204;2023-01-10T05:48:58;8.00;70.50
49132;DHT22;35149;51.196;6.204;2023-01-10T05:51:28;8.00;70.50
49132;DHT22;35149;51.196;6.204;2023-01-10T05:53:55;8.00;70.50
49132;DHT22;35149;51.196;6.204;2023-01-10T05:56:23;8.00;70.50
49132;DHT22;35149;51.196;6.204;2023-01-10T05:58:53;8.00;70.60
49132;DHT22;35149;51.196;6.204;2023-01-10T06:01:33;7.90;71.20
49132;DHT22;35149;51.196;6.204;2023-01-10T06:04:02;8.00;70.60
49132;DHT22;35149;51.196;6.204;2023-01-10T06:06:29;7.90;70.70
49132;DHT22;35149;51.196;6.204;2023-01-10T06:08:58;7.90;70.70
49132;DHT22;35149;51.196;6.204;2023-01-10T06:11:25;8.00;71.00
49132;DHT22;35149;51.196;6.204;2023-01-10T06:13:58;8.00;71.00
49132;DHT22;35149;51.196;6.204;2023-01-10T06:16:24;8.00;71.10
49132;DHT22;35149;51.196;6.204;2023-01-10T06:18:51;8.00;71.10
49132;DHT22;35149;51.196;6.204;2023-01-10T06:21:18;8.00;71.10
49132;DHT22;35149;51.196;6.204;2023-01-10T06:23:47;8.10;71.00
49132;DHT22;35149;51.196;6.204;2023-01-10T06:26:16;8.10;71.00
49132;DHT22;35149;51.196;6.204;2023-01-10T06:28:44;8.10;70.90
49132;DHT22;35149;51.196;6.204;2023-01-10T06:31:10;8.20;70.90
49132;DHT22;35149;51.196;6.204;2023-01-10T06:33:37;8.20;70.90
49132;DHT22;35149;51.196;6.204;2023-01-10T06:36:04;8.20;70.90
49132;DHT22;35149;51.196;6.204;2023-01-10T06:38:31;8.20;70.90
49132;DHT22;35149;51.196;6.204;2023-01-10T06:40:57;8.20;70.80
49132;DHT22;35149;51.196;6.204;2023-01-10T06:43:24;8.20;70.80
49132;DHT22;35149;51.196;6.204;2023-01-10T06:45:51;8.20;70.70
49132;DHT22;35149;51.196;6.204;2023-01-10T06:48:20;8.20;70.70
49132;DHT22;35149;51.196;6.204;2023-01-10T06:50:48;8.20;70.60
49132;DHT22;35149;51.196;6.204;2023-01-10T06:53:15;8.20;70.50
49132;DHT22;35149;51.196;6.204;2023-01-10T06:55:42;8.20;70.50
49132;DHT22;35149;51.196;6.204;2023-01-10T06:58:11;8.20;70.50
49132;DHT22;35149;51.196;6.204;2023-01-10T07:00:43;8.20;70.50
49132;DHT22;35149;51.196;6.204;2023-01-10T07:03:10;8.10;70.40
49132;DHT22;35149;51.196;6.204;2023-01-10T07:05:37;8.10;70.40
49132;DHT22;35149;51.196;6.204;2023-01-10T07:08:04;8.10;70.50
49132;DHT22;35149;51.196;6.204;2023-01-10T07:10:30;8.10;70.50
49132;DHT22;35149;51.196;6.204;2023-01-10T07:12:57;8.10;70.60
49132;DHT22;35149;51.196;6.204;2023-01-10T07:15:25;8.10;70.60
49132;DHT22;35149;51.196;6.204;2023-01-10T07:17:57;8.00;70.50
49132;DHT22;35149;51.196;6.204;2023-01-10T07:20:25;8.00;70.70
49132;DHT22;35149;51.196;6.204;2023-01-10T07:22:59;8.00;70.60
49132;DHT22;35149;51.196;6.204;2023-01-10T07:25:27;8.00;70.70
49132;DHT22;35149;51.196;6.204;2023-01-10T07:27:54;8.00;70.70
49132;DHT22;35149;51.196;6.204;2023-01-10T07:30:21;8.00;70.70
49132;DHT22;35149;51.196;6.204;2023-01-10T07:32:54;7.90;70.70
49132;DHT22;35149;51.196;6.204;2023-01-10T07:35:22;7.90;70.80
49132;DHT22;35149;51.196;6.204;2023-01-10T07:37:48;7.90;70.70
49132;DHT22;35149;51.196;6.204;2023-01-10T07:40:16;7.90;70.80
49132;DHT22;35149;51.196;6.204;2023-01-10T07:42:43;7.90;70.80
49132;DHT22;35149;51.196;6.204;2023-01-10T07:45:10;7.90;70.90
49132;DHT22;35149;51.196;6.204;2023-01-10T07:47:37;7.80;70.90
49132;DHT22;35149;51.196;6.204;2023-01-10T07:50:04;7.80;70.80
49132;DHT22;35149;51.196;6.204;2023-01-10T07:52:32;7.80;70.90
49132;DHT22;35149;51.196;6.204;2023-01-10T07:54:58;7.80;71.00
49132;DHT22;35149;51.196;6.204;2023-01-10T07:57:25;7.80;71.00
49132;DHT22;35149;51.196;6.204;2023-01-10T07:59:52;7.80;71.10
49132;DHT22;35149;51.196;6.204;2023-01-10T08:02:19;7.80;71.10
49132;DHT22;35149;51.196;6.204;2023-01-10T08:04:45;7.80;71.20
49132;DHT22;35149;51.196;6.204;2023-01-10T08:07:12;7.80;71.20
49132;DHT22;35149;51.196;6.204;2023-01-10T08:09:39;7.80;71.20
49132;DHT22;35149;51.196;6.204;2023-01-10T08:12:05;7.80;71.30
49132;DHT22;35149;51.196;6.204;2023-01-10T08:14:32;7.80;71.30
49132;DHT22;35149;51.196;6.204;2023-01-10T08:16:59;7.80;71.30
49132;DHT22;35149;51.196;6.204;2023-01-10T08:19:26;7.80;71.30
49132;DHT22;35149;51.196;6.204;2023-01-10T08:21:53;7.80;71.30
49132;DHT22;35149;51.196;6.204;2023-01-10T08:24:20;7.80;71.30
49132;DHT22;35149;51.196;6.204;2023-01-10T08:26:48;7.80;71.30
49132;DHT22;35149;51.196;6.204;2023-01-10T08:29:17;7.80;71.40
49132;DHT22;35149;51.196;6.204;2023-01-10T08:31:44;7.80;71.30
49132;DHT22;35149;51.196;6.204;2023-01-10T08:34:12;7.80;71.40
49132;DHT22;35149;51.196;6.204;2023-01-10T08:36:39;7.80;71.40
49132;DHT22;35149;51.196;6.204;2023-01-10T08:39:06;7.80;71.40
49132;DHT22;35149;51.196;6.204;2023-01-10T08:41:32;7.90;71.50
49132;DHT22;35149;51.196;6.204;2023-01-10T08:43:59;7.90;72.20
49132;DHT22;35149;51.196;6.204;2023-01-10T08:46:26;7.90;71.50
49132;DHT22;35149;51.196;6.204;2023-01-10T08:48:53;7.90;71.50
49132;DHT22;35149;51.196;6.204;2023-01-10T08:51:19;8.00;71.50
49132;DHT22;35149;51.196;6.204;2023-01-10T08:53:49;8.00;71.50
49132;DHT22;35149;51.196;6.204;2023-01-10T08:56:15;8.00;71.50
49132;DHT22;35149;51.196;6.204;2023-01-10T08:58:42;8.10;71.60
49132;DHT22;35149;51.196;6.204;2023-01-10T09:01:09;8.10;71.50
49132;DHT22;35149;51.196;6.204;2023-01-10T09:03:37;8.20;71.60
49132;DHT22;35149;51.196;6.204;2023-01-10T09:06:06;8.20;71.50
49132;DHT22;35149;51.196;6.204;2023-01-10T09:08:37;8.30;71.50
49132;DHT22;35149;51.196;6.204;2023-01-10T09:11:05;8.30;71.50
49132;DHT22;35149;51.196;6.204;2023-01-10T09:13:32;8.40;71.40
49132;DHT22;35149;51.196;6.204;2023-01-10T09:15:59;8.40;71.30
49132;DHT22;35149;51.196;6.204;2023-01-10T09:18:26;8.40;71.20
49132;DHT22;35149;51.196;6.204;2023-01-10T09:20:53;8.50;71.10
49132;DHT22;35149;51.196;6.204;2023-01-10T09:23:21;8.60;71.10
49132;DHT22;35149;51.196;6.204;2023-01-10T09:25:50;8.60;70.90
49132;DHT22;35149;51.196;6.204;2023-01-10T09:28:17;8.60;70.80
49132;DHT22;35149;51.196;6.204;2023-01-10T09:30:44;8.70;70.70
49132;DHT22;35149;51.196;6.204;2023-01-10T09:33:12;8.70;70.70
49132;DHT22;35149;51.196;6.204;2023-01-10T09:35:42;8.80;70.70
49132;DHT22;35149;51.196;6.204;2023-01-10T09:38:12;8.80;70.50
49132;DHT22;35149;51.196;6.204;2023-01-10T09:46:25;9.00;70.40
49132;DHT22;35149;51.196;6.204;2023-01-10T09:51:50;9.10;70.20
49132;DHT22;35149;51.196;6.204;2023-01-10T09:54:26;9.10;70.10
49132;DHT22;35149;51.196;6.204;2023-01-10T09:56:54;9.20;70.00
49132;DHT22;35149;51.196;6.204;2023-01-10T09:59:34;9.20;69.90
49132;DHT22;35149;51.196;6.204;2023-01-10T10:02:32;9.30;69.80
49132;DHT22;35149;51.196;6.204;2023-01-10T10:05:24;9.40;69.70
49132;DHT22;35149;51.196;6.204;2023-01-10T10:07:55;9.40;69.40
49132;DHT22;35149;51.196;6.204;2023-01-10T10:10:35;9.50;70.20
49132;DHT22;35149;51.196;6.204;2023-01-10T10:16:13;9.50;69.10
49132;DHT22;35149;51.196;6.204;2023-01-10T10:18:51;9.60;69.30
49132;DHT22;35149;51.196;6.204;2023-01-10T10:35:33;9.80;68.30
49132;DHT22;35149;51.196;6.204;2023-01-10T10:40:42;9.80;68.30
49132;DHT22;35149;51.196;6.204;2023-01-10T10:43:21;9.90;68.40
49132;DHT22;35149;51.196;6.204;2023-01-10T10:45:53;9.90;68.50
49132;DHT22;35149;51.196;6.204;2023-01-10T10:48:27;9.90;68.60
49132;DHT22;35149;51.196;6.204;2023-01-10T10:51:11;10.00;68.30
49132;DHT22;35149;51.196;6.204;2023-01-10T10:53:41;10.10;68.20
49132;DHT22;35149;51.196;6.204;2023-01-10T10:56:12;10.10;68.20
49132;DHT22;35149;51.196;6.204;2023-01-10T10:58:43;10.10;68.00
49132;DHT22;35149;51.196;6.204;2023-01-10T11:01:13;10.20;68.00
49132;DHT22;35149;51.196;6.204;2023-01-10T11:04:06;10.20;68.00
49132;DHT22;35149;51.196;6.204;2023-01-10T11:06:35;10.30;67.70
49132;DHT22;35149;51.196;6.204;2023-01-10T11:09:04;10.30;67.90
49132;DHT22;35149;51.196;6.204;2023-01-10T11:11:37;10.30;67.80
49132;DHT22;35149;51.196;6.204;2023-01-10T11:14:07;10.40;67.70
49132;DHT22;35149;51.196;6.204;2023-01-10T11:16:41;10.40;67.50
49132;DHT22;35149;51.196;6.204;2023-01-10T11:19:30;10.50;67.30
49132;DHT22;35149;51.196;6.204;2023-01-10T11:22:02;10.60;66.90
49132;DHT22;35149;51.196;6.204;2023-01-10T11:27:04;10.60;67.20
49132;DHT22;35149;51.196;6.204;2023-01-10T11:30:07;10.70;67.00
49132;DHT22;35149;51.196;6.204;2023-01-10T11:32:37;10.70;66.60
49132;DHT22;35149;51.196;6.204;2023-01-10T11:38:17;10.80;66.50
49132;DHT22;35149;51.196;6.204;2023-01-10T11:41:06;10.80;66.20
49132;DHT22;35149;51.196;6.204;2023-01-10T11:43:48;10.90;66.20
49132;DHT22;35149;51.196;6.204;2023-01-10T11:46:18;10.90;66.60
49132;DHT22;35149;51.196;6.204;2023-01-10T11:49:06;10.90;66.40
49132;DHT22;35149;51.196;6.204;2023-01-10T11:51:52;11.00;66.10
49132;DHT22;35149;51.196;6.204;2023-01-10T11:54:26;11.00;65.80
49132;DHT22;35149;51.196;6.204;2023-01-10T11:57:08;11.10;66.10
49132;DHT22;35149;51.196;6.204;2023-01-10T11:59:56;11.10;66.00
49132;DHT22;35149;51.196;6.204;2023-01-10T12:02:25;11.20;66.10
49132;DHT22;35149;51.196;6.204;2023-01-10T12:04:57;11.20;66.00
49132;DHT22;35149;51.196;6.204;2023-01-10T12:07:25;11.30;65.80
49132;DHT22;35149;51.196;6.204;2023-01-10T12:09:58;11.30;65.50
49132;DHT22;35149;51.196;6.204;2023-01-10T12:14:54;11.30;65.30
49132;DHT22;35149;51.196;6.204;2023-01-10T12:17:23;11.40;65.20
49132;DHT22;35149;51.196;6.204;2023-01-10T12:19:54;11.40;65.20
49132;DHT22;35149;51.196;6.204;2023-01-10T12:22:29;11.40;65.30
49132;DHT22;35149;51.196;6.204;2023-01-10T12:24:59;11.40;64.90
49132;DHT22;35149;51.196;6.204;2023-01-10T12:27:27;11.40;65.00
49132;DHT22;35149;51.196;6.204;2023-01-10T12:32:37;11.50;64.70
49132;DHT22;35149;51.196;6.204;2023-01-10T12:35:12;11.50;64.70
49132;DHT22;35149;51.196;6.204;2023-01-10T12:37:47;11.60;64.80
49132;DHT22;35149;51.196;6.204;2023-01-10T12:42:53;11.60;64.80
49132;DHT22;35149;51.196;6.204;2023-01-10T12:45:52;11.60;64.40
49132;DHT22;35149;51.196;6.204;2023-01-10T12:48:33;11.70;64.40
49132;DHT22;35149;51.196;6.204;2023-01-10T12:51:11;11.70;64.10
49132;DHT22;35149;51.196;6.204;2023-01-10T12:53:47;11.70;64.50
49132;DHT22;35149;51.196;6.204;2023-01-10T12:56:16;11.70;64.40
49132;DHT22;35149;51.196;6.204;2023-01-10T12:59:01;11.70;64.20
49132;DHT22;35149;51.196;6.204;2023-01-10T13:01:34;11.80;63.90
49132;DHT22;35149;51.196;6.204;2023-01-10T13:04:09;11.80;63.60
49132;DHT22;35149;51.196;6.204;2023-01-10T13:06:40;11.80;63.70
49132;DHT22;35149;51.196;6.204;2023-01-10T13:09:20;11.80;63.80
49132;DHT22;35149;51.196;6.204;2023-01-10T13:14:58;11.80;63.40
49132;DHT22;35149;51.196;6.204;2023-01-10T13:22:46;11.80;63.30
49132;DHT22;35149;51.196;6.204;2023-01-10T13:25:18;11.80;63.40
49132;DHT22;35149;51.196;6.204;2023-01-10T13:27:45;11.90;63.70
49132;DHT22;35149;51.196;6.204;2023-01-10T13:30:32;11.80;63.70
49132;DHT22;35149;51.196;6.204;2023-01-10T13:33:15;11.90;62.90
49132;DHT22;35149;51.196;6.204;2023-01-10T13:35:44;11.80;63.20
49132;DHT22;35149;51.196;6.204;2023-01-10T13:38:43;11.80;64.00
49132;DHT22;35149;51.196;6.204;2023-01-10T13:41:13;11.90;62.70
49132;DHT22;35149;51.196;6.204;2023-01-10T13:44:12;11.80;62.90
49132;DHT22;35149;51.196;6.204;2023-01-10T13:51:38;11.80;62.70
49132;DHT22;35149;51.196;6.204;2023-01-10T13:54:25;11.70;62.60
49132;DHT22;35149;51.196;6.204;2023-01-10T13:56:53;11.70;62.60
49132;DHT22;35149;51.196;6.204;2023-01-10T14:02:26;11.70;62.40
49132;DHT22;35149;51.196;6.204;2023-01-10T14:05:00;11.70;62.40
49132;DHT22;35149;51.196;6.204;2023-01-10T14:07:30;11.60;62.50
49132;DHT22;35149;51.196;6.204;2023-01-10T14:10:07;11.60;62.60
49132;DHT22;35149;51.196;6.204;2023-01-10T14:12:57;11.70;62.50
49132;DHT22;35149;51.196;6.204;2023-01-10T14:15:30;11.60;62.30
49132;DHT22;35149;51.196;6.204;2023-01-10T14:18:04;11.60;62.60
49132;DHT22;35149;51.196;6.204;2023-01-10T14:20:34;11.60;62.50
49132;DHT22;35149;51.196;6.204;2023-01-10T14:23:04;11.60;62.40
49132;DHT22;35149;51.196;6.204;2023-01-10T14:25:34;11.60;62.40
49132;DHT22;35149;51.196;6.204;2023-01-10T14:28:03;11.60;62.30
49132;DHT22;35149;51.196;6.204;2023-01-10T14:30:33;11.60;62.30
49132;DHT22;35149;51.196;6.204;2023-01-10T14:33:14;11.60;62.10
49132;DHT22;35149;51.196;6.204;2023-01-10T14:35:43;11.60;62.30
49132;DHT22;35149;51.196;6.204;2023-01-10T14:38:38;11.60;62.10
49132;DHT22;35149;51.196;6.204;2023-01-10T14:41:14;11.50;61.40
49132;DHT22;35149;51.196;6.204;2023-01-10T14:43:46;11.60;61.60
49132;DHT22;35149;51.196;6.204;2023-01-10T14:46:21;11.50;61.90
49132;DHT22;35149;51.196;6.204;2023-01-10T14:48:51;11.50;62.20
49132;DHT22;35149;51.196;6.204;2023-01-10T14:51:24;11.50;62.60
49132;DHT22;35149;51.196;6.204;2023-01-10T14:54:12;11.50;62.90
49132;DHT22;35149;51.196;6.204;2023-01-10T14:56:50;11.40;63.10
49132;DHT22;35149;51.196;6.204;2023-01-10T14:59:31;11.40;63.60
49132;DHT22;35149;51.196;6.204;2023-01-10T15:07:25;11.30;64.50
49132;DHT22;35149;51.196;6.204;2023-01-10T15:09:54;11.30;64.70
49132;DHT22;35149;51.196;6.204;2023-01-10T15:12:24;11.20;64.90
49132;DHT22;35149;51.196;6.204;2023-01-10T15:15:11;11.20;64.90
49132;DHT22;35149;51.196;6.204;2023-01-10T15:17:40;11.20;65.20
49132;DHT22;35149;51.196;6.204;2023-01-10T15:20:14;11.10;65.10
49132;DHT22;35149;51.196;6.204;2023-01-10T15:22:54;11.10;65.50
49132;DHT22;35149;51.196;6.204;2023-01-10T15:25:26;11.00;65.70
49132;DHT22;35149;51.196;6.204;2023-01-10T15:27:56;11.00;65.90
49132;DHT22;35149;51.196;6.204;2023-01-10T15:30:26;10.90;66.10
49132;DHT22;35149;51.196;6.204;2023-01-10T15:32:55;10.90;66.30
49132;DHT22;35149;51.196;6.204;2023-01-10T15:35:25;10.90;66.40
49132;DHT22;35149;51.196;6.204;2023-01-10T15:38:14;10.80;66.60
49132;DHT22;35149;51.196;6.204;2023-01-10T15:40:42;10.80;67.10
49132;DHT22;35149;51.196;6.204;2023-01-10T15:43:29;10.80;67.00
49132;DHT22;35149;51.196;6.204;2023-01-10T15:45:58;10.70;67.60
49132;DHT22;35149;51.196;6.204;2023-01-10T15:48:37;10.70;67.30
49132;DHT22;35149;51.196;6.204;2023-01-10T15:51:12;10.60;67.60
49132;DHT22;35149;51.196;6.204;2023-01-10T15:53:57;10.60;67.90
49132;DHT22;35149;51.196;6.204;2023-01-10T15:56:35;10.60;68.20
49132;DHT22;35149;51.196;6.204;2023-01-10T15:59:17;10.50;67.80
49132;DHT22;35149;51.196;6.204;2023-01-10T16:01:52;10.50;68.20
49132;DHT22;35149;51.196;6.204;2023-01-10T16:04:20;10.50;68.50
49132;DHT22;35149;51.196;6.204;2023-01-10T16:06:49;10.50;68.10
49132;DHT22;35149;51.196;6.204;2023-01-10T16:09:20;10.40;68.50
49132;DHT22;35149;51.196;6.204;2023-01-10T16:11:51;10.40;68.60
49132;DHT22;35149;51.196;6.204;2023-01-10T16:14:37;10.40;68.80
49132;DHT22;35149;51.196;6.204;2023-01-10T16:17:04;10.40;68.80
49132;DHT22;35149;51.196;6.204;2023-01-10T16:19:31;10.40;69.10
49132;DHT22;35149;51.196;6.204;2023-01-10T16:21:58;10.30;69.20
49132;DHT22;35149;51.196;6.204;2023-01-10T16:24:43;10.40;69.30
49132;DHT22;35149;51.196;6.204;2023-01-10T16:27:10;10.30;70.00
49132;DHT22;35149;51.196;6.204;2023-01-10T16:29:37;10.30;69.30
49132;DHT22;35149;51.196;6.204;2023-01-10T16:32:13;10.30;69.60
49132;DHT22;35149;51.196;6.204;2023-01-10T16:34:40;10.30;70.10
49132;DHT22;35149;51.196;6.204;2023-01-10T16:37:07;10.30;69.80
49132;DHT22;35149;51.196;6.204;2023-01-10T16:39:34;10.30;70.00
49132;DHT22;35149;51.196;6.204;2023-01-10T16:42:01;10.30;70.10
49132;DHT22;35149;51.196;6.204;2023-01-10T16:44:46;10.30;70.20
49132;DHT22;35149;51.196;6.204;2023-01-10T16:47:13;10.30;70.10
49132;DHT22;35149;51.196;6.204;2023-01-10T16:49:39;10.30;70.30
49132;DHT22;35149;51.196;6.204;2023-01-10T16:52:12;10.30;70.50
49132;DHT22;35149;51.196;6.204;2023-01-10T16:54:41;10.30;70.80
49132;DHT22;35149;51.196;6.204;2023-01-10T16:57:08;10.20;70.70
49132;DHT22;35149;51.196;6.204;2023-01-10T16:59:37;10.20;70.80
49132;DHT22;35149;51.196;6.204;2023-01-10T17:02:15;10.20;70.90
49132;DHT22;35149;51.196;6.204;2023-01-10T17:04:43;10.20;71.40
49132;DHT22;35149;51.196;6.204;2023-01-10T17:07:11;10.20;71.10
49132;DHT22;35149;51.196;6.204;2023-01-10T17:09:38;10.20;71.20
49132;DHT22;35149;51.196;6.204;2023-01-10T17:12:11;10.20;71.20
49132;DHT22;35149;51.196;6.204;2023-01-10T17:14:39;10.20;71.40
49132;DHT22;35149;51.196;6.204;2023-01-10T17:17:09;10.20;71.30
49132;DHT22;35149;51.196;6.204;2023-01-10T17:19:36;10.20;71.60
49132;DHT22;35149;51.196;6.204;2023-01-10T17:22:04;10.20;71.60
49132;DHT22;35149;51.196;6.204;2023-01-10T17:24:31;10.20;71.90
49132;DHT22;35149;51.196;6.204;2023-01-10T17:26:57;10.20;71.70
49132;DHT22;35149;51.196;6.204;2023-01-10T17:29:24;10.20;71.90
49132;DHT22;35149;51.196;6.204;2023-01-10T17:31:50;10.20;71.90
49132;DHT22;35149;51.196;6.204;2023-01-10T17:34:20;10.10;71.90
49132;DHT22;35149;51.196;6.204;2023-01-10T17:36:49;10.10;72.00
49132;DHT22;35149;51.196;6.204;2023-01-10T17:39:16;10.10;72.20
49132;DHT22;35149;51.196;6.204;2023-01-10T17:41:43;10.10;72.20